createdAt,value
2023-01-19T00:02:55.204Z,98871.17
2023-01-19T00:07:05.357Z,98875.48
2023-01-19T00:11:14.183Z,98894.98
2023-01-19T00:15:22.209Z,98903.63
2023-01-19T00:19:30.240Z,98905.17
2023-01-19T00:23:38.061Z,98911.45
2023-01-19T00:27:49.338Z,98917.00
2023-01-19T00:31:56.940Z,98930.95
2023-01-19T00:36:05.262Z,98939.73
2023-01-19T00:40:15.404Z,98940.17
2023-01-19T00:44:23.159Z,98944.10
2023-01-19T00:48:31.008Z,98943.29
2023-01-19T00:52:39.488Z,98951.92
2023-01-19T00:56:47.244Z,98955.47
2023-01-19T01:00:57.894Z,98963.62
2023-01-19T01:05:06.462Z,98970.07
2023-01-19T01:09:14.482Z,98980.41
2023-01-19T01:13:26.344Z,98986.93
2023-01-19T01:17:35.838Z,98992.55
2023-01-19T01:21:47.043Z,98999.71
2023-01-19T01:25:55.008Z,98999.80
2023-01-19T01:30:02.580Z,99007.39
2023-01-19T01:34:10.570Z,99015.17
2023-01-19T01:38:18.320Z,99019.90
2023-01-19T01:42:30.227Z,99018.21
2023-01-19T01:46:37.884Z,99018.10
2023-01-19T01:51:02.930Z,99016.77
2023-01-19T01:55:11.466Z,99018.58
2023-01-19T01:59:27.288Z,99024.95
2023-01-19T02:03:36.287Z,99030.96
2023-01-19T02:08:05.493Z,99034.53
2023-01-19T02:12:31.199Z,99032.50
2023-01-19T02:16:43.058Z,99029.36
2023-01-19T02:20:57.807Z,99037.80
2023-01-19T02:25:06.580Z,99042.21
2023-01-19T02:29:16.007Z,99043.49
2023-01-19T02:33:24.093Z,99046.64
2023-01-19T02:37:32.933Z,99048.80
2023-01-19T02:41:44.203Z,99050.40
2023-01-19T02:45:52.603Z,99051.80
2023-01-19T02:50:01.424Z,99054.13
2023-01-19T02:54:33.345Z,99054.73
2023-01-19T02:58:46.796Z,99054.34
2023-01-19T03:03:03.534Z,99046.77
2023-01-19T03:07:13.303Z,99042.72
2023-01-19T03:11:21.296Z,99050.80
2023-01-19T03:15:34.358Z,99056.05
2023-01-19T03:19:44.165Z,99053.11
2023-01-19T03:23:53.742Z,99056.09
2023-01-19T03:28:02.051Z,99056.10
2023-01-19T03:32:13.301Z,99058.36
2023-01-19T03:36:23.250Z,99054.89
2023-01-19T03:40:32.960Z,99055.94
2023-01-19T03:44:42.381Z,99058.73
2023-01-19T03:48:51.013Z,99058.21
2023-01-19T03:53:08.808Z,99054.92
2023-01-19T03:57:16.003Z,99059.17
2023-01-19T04:01:23.953Z,99054.55
2023-01-19T04:05:32.804Z,99055.17
2023-01-19T04:09:40.563Z,99060.54
2023-01-19T04:13:48.694Z,99064.50
2023-01-19T04:17:56.352Z,99068.03
2023-01-19T04:22:05.002Z,99075.75
2023-01-19T04:26:13.098Z,99086.11
2023-01-19T04:30:21.611Z,99084.36
2023-01-19T04:34:30.310Z,99087.27
2023-01-19T04:38:38.751Z,99094.23
2023-01-19T04:42:48.531Z,99100.73
2023-01-19T04:46:56.496Z,99111.17
2023-01-19T04:51:04.139Z,99120.75
2023-01-19T04:55:13.390Z,99129.13
2023-01-19T04:59:21.695Z,99141.33
2023-01-19T05:03:29.955Z,99149.70
2023-01-19T05:07:37.862Z,99156.70
2023-01-19T05:11:45.450Z,99167.35
2023-01-19T05:15:52.896Z,99188.66
2023-01-19T05:20:00.423Z,99196.70
2023-01-19T05:24:10.740Z,99189.16
2023-01-19T05:28:18.664Z,99187.56
2023-01-19T05:32:26.045Z,99183.92
2023-01-19T05:36:34.095Z,99180.61
2023-01-19T05:40:41.843Z,99175.21
2023-01-19T05:44:49.521Z,99167.86
2023-01-19T05:48:57.799Z,99170.07
2023-01-19T05:53:05.916Z,99176.55
2023-01-19T05:57:13.417Z,99176.46
2023-01-19T06:01:20.765Z,99194.17
2023-01-19T06:05:29.019Z,99211.61
2023-01-19T06:09:36.670Z,99221.69
2023-01-19T06:13:44.558Z,99231.27
2023-01-19T06:17:51.984Z,99239.13
2023-01-19T06:22:00.117Z,99241.44
2023-01-19T06:26:08.502Z,99236.69
2023-01-19T06:30:17.351Z,99238.79
2023-01-19T06:34:29.230Z,99254.52
2023-01-19T06:38:39.516Z,99258.70
2023-01-19T06:42:47.651Z,99263.61
2023-01-19T06:47:15.317Z,99266.05
2023-01-19T06:51:23.852Z,99265.86
2023-01-19T06:55:31.797Z,99266.23
2023-01-19T06:59:41.778Z,99269.51
2023-01-19T07:03:49.299Z,99272.19
2023-01-19T07:07:57.919Z,99274.34
2023-01-19T07:12:07.069Z,99271.44
2023-01-19T07:16:16.079Z,99271.73
2023-01-19T07:20:24.565Z,99276.75
2023-01-19T07:24:33.904Z,99276.73
2023-01-19T07:28:42.046Z,99277.30
2023-01-19T07:32:49.326Z,99279.14
2023-01-19T07:36:58.735Z,99282.00
2023-01-19T07:41:07.714Z,99280.94
2023-01-19T07:45:16.413Z,99279.30
2023-01-19T07:49:24.149Z,99281.27
2023-01-19T07:53:31.477Z,99281.23
2023-01-19T07:57:39.230Z,99279.33
2023-01-19T08:01:46.857Z,99283.13
2023-01-19T08:05:57.881Z,99281.41
2023-01-19T08:10:06.058Z,99288.10
2023-01-19T08:14:14.083Z,99290.76
2023-01-19T08:18:22.141Z,99295.75
2023-01-19T08:22:29.649Z,99297.52
2023-01-19T08:26:39.181Z,99301.12
2023-01-19T08:30:54.288Z,99306.20
2023-01-19T08:35:02.361Z,99313.31
2023-01-19T08:39:14.361Z,99311.42
2023-01-19T08:43:22.278Z,99316.31
2023-01-19T08:47:30.912Z,99313.89
2023-01-19T08:51:38.451Z,99314.98
2023-01-19T08:55:46.109Z,99315.50
2023-01-19T08:59:53.985Z,99314.77
2023-01-19T09:04:01.866Z,99319.86
2023-01-19T09:08:11.070Z,99333.48
2023-01-19T09:12:18.704Z,99350.85
2023-01-19T09:16:27.303Z,99356.46
2023-01-19T09:20:38.696Z,99365.30
2023-01-19T09:24:46.433Z,99372.42
2023-01-19T09:28:54.723Z,99371.96
2023-01-19T09:33:06.618Z,99368.83
2023-01-19T09:37:14.217Z,99365.66
2023-01-19T09:41:25.140Z,99361.90
2023-01-19T09:45:38.473Z,99360.70
2023-01-19T09:49:48.824Z,99355.69
2023-01-19T09:54:01.620Z,99350.94
2023-01-19T09:58:13.204Z,99342.61
2023-01-19T10:02:37.285Z,99332.19
2023-01-19T10:06:46.389Z,99333.33
2023-01-19T10:10:58.629Z,99331.54
2023-01-19T10:15:14.336Z,99330.77
2023-01-19T10:19:27.416Z,99328.05
2023-01-19T10:23:45.173Z,99333.09
2023-01-19T10:27:52.730Z,99333.30
2023-01-19T10:32:05.810Z,99331.09
2023-01-19T10:36:20.243Z,99326.76
2023-01-19T10:40:35.772Z,99335.17
2023-01-19T10:44:46.049Z,99342.03
2023-01-19T10:48:55.285Z,99338.66
2023-01-19T10:53:05.835Z,99338.11
2023-01-19T10:57:21.857Z,99334.61
2023-01-19T11:01:31.474Z,99338.13
2023-01-19T11:05:42.238Z,99342.80
2023-01-19T11:09:49.931Z,99342.39
2023-01-19T11:14:11.625Z,99342.35
2023-01-19T11:18:28.623Z,99332.47
2023-01-19T11:22:37.214Z,99333.30
2023-01-19T11:26:48.030Z,99333.94
2023-01-19T11:31:00.750Z,99326.84
2023-01-19T11:35:35.583Z,99323.55
2023-01-19T11:39:51.740Z,99328.20
2023-01-19T11:44:01.792Z,99318.23
2023-01-19T11:48:20.360Z,99311.90
2023-01-19T11:52:31.747Z,99309.40
2023-01-19T11:56:39.525Z,99308.67
2023-01-19T12:00:50.127Z,99312.02
2023-01-19T12:05:00.611Z,99308.58
2023-01-19T12:09:13.310Z,99304.00
2023-01-19T12:13:26.838Z,99296.45
2023-01-19T12:17:37.767Z,99293.35
2023-01-19T12:21:48.275Z,99282.72
2023-01-19T12:26:05.997Z,99285.80
2023-01-19T12:30:21.168Z,99283.84
2023-01-19T12:34:38.389Z,99280.73
2023-01-19T12:38:53.976Z,99286.08
2023-01-19T12:43:05.379Z,99287.31
2023-01-19T12:47:24.530Z,99288.35
2023-01-19T12:51:32.793Z,99286.77
2023-01-19T12:55:47.527Z,99280.39
2023-01-19T13:00:01.452Z,99279.21
2023-01-19T13:04:31.000Z,99284.59
2023-01-19T13:09:00.007Z,99282.75
2023-01-19T13:13:20.242Z,99287.84
2023-01-19T13:17:35.491Z,99290.48
2023-01-19T13:21:45.641Z,99289.21
2023-01-19T13:26:05.330Z,99297.42
2023-01-19T13:30:19.197Z,99298.14
2023-01-19T13:34:28.479Z,99294.67
2023-01-19T13:38:36.368Z,99296.34
2023-01-19T13:42:46.139Z,99299.08
2023-01-19T13:46:54.626Z,99302.79
2023-01-19T13:51:08.430Z,99308.30
2023-01-19T13:55:19.133Z,99310.83
2023-01-19T13:59:27.384Z,99316.89
2023-01-19T14:03:37.230Z,99313.60
2023-01-19T14:07:45.862Z,99312.80
2023-01-19T14:16:29.942Z,99314.48
2023-01-19T14:20:37.884Z,99316.52
2023-01-19T14:24:46.007Z,99324.13
2023-01-19T14:28:54.215Z,99330.05
2023-01-19T14:33:01.864Z,99328.92
2023-01-19T14:37:20.211Z,99334.27
2023-01-19T14:41:31.446Z,99335.44
2023-01-19T14:45:42.532Z,99332.72
2023-01-19T14:49:51.774Z,99339.12
2023-01-19T14:54:01.128Z,99344.97
2023-01-19T14:58:14.065Z,99346.66
2023-01-19T15:02:22.212Z,99352.09
2023-01-19T15:06:29.764Z,99356.19
2023-01-19T15:10:38.252Z,99363.58
2023-01-19T15:14:46.277Z,99373.67
2023-01-19T15:18:54.533Z,99371.11
2023-01-19T15:23:02.727Z,99372.70
2023-01-19T15:27:15.130Z,99371.46
2023-01-19T15:31:24.721Z,99372.50
2023-01-19T15:35:32.551Z,99376.02
2023-01-19T15:39:41.770Z,99381.63
2023-01-19T15:43:49.679Z,99387.63
2023-01-19T15:47:57.273Z,99396.02
2023-01-19T15:52:05.073Z,99403.99
2023-01-19T15:56:17.367Z,99401.02
2023-01-19T16:00:26.811Z,99395.29
2023-01-19T16:04:34.732Z,99395.80
2023-01-19T16:08:43.792Z,99399.23
2023-01-19T16:12:52.586Z,99402.91
2023-01-19T16:17:02.195Z,99411.04
2023-01-19T16:21:09.979Z,99415.38
2023-01-19T16:25:17.891Z,99416.11
2023-01-19T16:29:26.593Z,99416.28
2023-01-19T16:33:34.883Z,99414.03
2023-01-19T16:37:43.107Z,99416.55
2023-01-19T16:41:52.151Z,99416.39
2023-01-19T16:46:02.125Z,99425.43
2023-01-19T16:50:13.622Z,99426.20
2023-01-19T16:54:23.469Z,99419.73
2023-01-19T16:58:31.263Z,99419.50
2023-01-19T17:02:39.653Z,99418.52
2023-01-19T17:06:48.000Z,99414.64
2023-01-19T17:10:56.439Z,99420.98
2023-01-19T17:15:04.676Z,99425.80
2023-01-19T17:19:16.739Z,99433.30
2023-01-19T17:23:26.256Z,99435.38
2023-01-19T17:27:36.023Z,99424.70
2023-01-19T17:31:44.493Z,99421.83
2023-01-19T17:35:53.784Z,99432.16
2023-01-19T17:40:02.212Z,99442.33
2023-01-19T17:44:12.492Z,99441.92
2023-01-19T17:48:21.768Z,99444.93
2023-01-19T17:52:29.669Z,99447.83
2023-01-19T17:56:39.070Z,99449.60
2023-01-19T18:00:46.456Z,99458.54
2023-01-19T18:04:56.507Z,99461.27
2023-01-19T18:09:05.417Z,99468.23
2023-01-19T18:13:12.940Z,99477.77
2023-01-19T18:17:21.061Z,99483.31
2023-01-19T18:21:30.873Z,99495.80
2023-01-19T18:25:39.964Z,99495.88
2023-01-19T18:29:47.684Z,99491.52
2023-01-19T18:33:55.559Z,99499.36
2023-01-19T18:38:03.228Z,99500.23
2023-01-19T18:42:11.209Z,99501.84
2023-01-19T18:46:21.328Z,99503.45
2023-01-19T18:50:29.288Z,99502.42
2023-01-19T18:54:37.463Z,99496.25
2023-01-19T18:58:45.931Z,99495.61
2023-01-19T19:02:55.991Z,99504.77
2023-01-19T19:07:03.921Z,99505.59
2023-01-19T19:11:14.078Z,99507.30
2023-01-19T19:15:22.270Z,99506.34
2023-01-19T19:19:30.084Z,99502.85
2023-01-19T19:23:40.096Z,99503.02
2023-01-19T19:27:48.624Z,99503.71
2023-01-19T19:31:56.989Z,99507.76
2023-01-19T19:36:05.206Z,99511.50
2023-01-19T19:40:15.434Z,99516.96
2023-01-19T19:44:24.029Z,99523.11
2023-01-19T19:48:31.722Z,99527.80
2023-01-19T19:52:42.840Z,99529.54
2023-01-19T19:56:52.495Z,99538.55
2023-01-19T20:01:04.342Z,99538.42
2023-01-19T20:05:12.995Z,99544.73
2023-01-19T20:09:20.643Z,99558.98
2023-01-19T20:13:30.111Z,99564.45
2023-01-19T20:17:39.351Z,99573.38
2023-01-19T20:21:46.926Z,99572.02
2023-01-19T20:25:55.122Z,99575.58
2023-01-19T20:30:04.009Z,99582.05
2023-01-19T20:34:12.633Z,99590.82
2023-01-19T20:38:22.812Z,99591.23
2023-01-19T20:42:31.075Z,99595.39
2023-01-19T20:46:39.148Z,99591.70
2023-01-19T20:50:46.630Z,99589.09
2023-01-19T20:54:55.897Z,99589.59
2023-01-19T20:59:03.406Z,99590.26
2023-01-19T21:03:11.536Z,99591.13
2023-01-19T21:07:19.440Z,99594.64
2023-01-19T21:11:27.906Z,99596.46
2023-01-19T21:15:36.505Z,99597.55
2023-01-19T21:19:45.261Z,99599.63
2023-01-19T21:23:54.050Z,99606.74
2023-01-19T21:28:02.039Z,99609.48
2023-01-19T21:32:10.145Z,99608.48
2023-01-19T21:36:18.107Z,99608.98
2023-01-19T21:40:26.202Z,99608.45
2023-01-19T21:44:33.963Z,99613.29
2023-01-19T21:48:42.102Z,99613.12
2023-01-19T21:52:50.393Z,99612.60
2023-01-19T21:56:58.551Z,99614.14
2023-01-19T22:01:14.213Z,99620.89
2023-01-19T22:05:22.500Z,99614.11
2023-01-19T22:09:31.754Z,99614.11
2023-01-19T22:13:40.269Z,99612.19
2023-01-19T22:17:48.458Z,99614.61
2023-01-19T22:21:56.161Z,99614.92
2023-01-19T22:26:03.772Z,99617.16
2023-01-19T22:30:13.141Z,99620.63
2023-01-19T22:34:21.189Z,99628.77
2023-01-19T22:38:28.689Z,99635.68
2023-01-19T22:42:36.400Z,99644.38
2023-01-19T22:46:44.189Z,99650.66
2023-01-19T22:50:51.698Z,99657.09
2023-01-19T22:55:00.203Z,99660.91
2023-01-19T22:59:08.191Z,99657.12
2023-01-19T23:03:16.157Z,99664.27
2023-01-19T23:07:23.941Z,99666.02
2023-01-19T23:11:35.939Z,99666.88
2023-01-19T23:15:43.637Z,99670.80
2023-01-19T23:19:52.064Z,99668.80
2023-01-19T23:24:00.785Z,99666.50
2023-01-19T23:28:09.260Z,99661.40
2023-01-19T23:32:17.680Z,99662.77
2023-01-19T23:36:26.580Z,99666.63
2023-01-19T23:40:34.457Z,99670.13
2023-01-19T23:44:44.278Z,99677.46
2023-01-19T23:48:52.152Z,99685.30
2023-01-19T23:52:59.689Z,99690.58
2023-01-19T23:57:07.620Z,99689.77
